createdAt,value
2019-02-19T00:00:57.312Z,71.77
2019-02-19T00:04:03.081Z,75.23
2019-02-19T00:07:09.234Z,67.83
2019-02-19T00:10:15.068Z,73.90
2019-02-19T00:13:20.870Z,65.83
2019-02-19T00:16:26.651Z,66.73
2019-02-19T00:19:32.431Z,62.83
2019-02-19T00:22:38.189Z,60.10
2019-02-19T00:25:43.963Z,61.73
2019-02-19T00:28:49.835Z,64.23
2019-02-19T00:31:55.645Z,61.67
2019-02-19T00:35:01.430Z,58.73
2019-02-19T00:38:07.194Z,59.87
2019-02-19T00:41:13.019Z,50.47
2019-02-19T00:44:18.817Z,53.40
2019-02-19T00:47:24.599Z,57.37
2019-02-19T00:50:30.375Z,50.37
2019-02-19T00:53:36.167Z,51.83
2019-02-19T00:56:42.096Z,50.67
2019-02-19T00:59:47.873Z,58.03
2019-02-19T01:02:53.669Z,51.77
2019-02-19T01:05:59.482Z,50.20
2019-02-19T01:09:07.802Z,53.57
2019-02-19T01:12:14.090Z,46.07
2019-02-19T01:15:25.487Z,49.40
2019-02-19T01:18:27.478Z,51.70
2019-02-19T01:21:33.230Z,48.07
2019-02-19T01:24:39.035Z,48.63
2019-02-19T01:27:44.820Z,49.50
2019-02-19T01:30:50.613Z,51.63
2019-02-19T01:33:56.448Z,45.80
2019-02-19T01:37:02.230Z,49.00
2019-02-19T01:40:08.575Z,46.53
2019-02-19T01:43:14.389Z,46.23
2019-02-19T01:46:20.179Z,49.83
2019-02-19T01:49:25.958Z,47.03
2019-02-19T01:52:31.746Z,45.87
2019-02-19T01:55:37.510Z,44.33
2019-02-19T01:58:43.276Z,48.33
2019-02-19T02:01:49.073Z,48.47
2019-02-19T02:04:54.845Z,50.37
2019-02-19T02:08:00.614Z,45.37
2019-02-19T02:11:06.480Z,46.17
2019-02-19T02:14:12.262Z,42.57
2019-02-19T02:17:18.018Z,41.37
2019-02-19T02:20:23.803Z,45.43
2019-02-19T02:23:29.560Z,40.83
2019-02-19T02:26:35.394Z,41.40
2019-02-19T02:29:41.206Z,36.00
2019-02-19T02:32:47.000Z,44.03
2019-02-19T02:35:52.786Z,42.60
2019-02-19T02:38:58.601Z,44.30
2019-02-19T02:42:04.374Z,42.20
2019-02-19T02:45:10.385Z,45.53
2019-02-19T02:48:16.154Z,42.63
2019-02-19T02:51:21.930Z,43.83
2019-02-19T02:54:27.685Z,41.67
2019-02-19T02:57:33.614Z,41.17
2019-02-19T03:00:39.401Z,42.27
2019-02-19T03:03:45.184Z,41.67
2019-02-19T03:07:14.077Z,41.37
2019-02-19T03:10:19.959Z,37.57
2019-02-19T03:13:25.763Z,40.47
2019-02-19T03:16:31.511Z,39.30
2019-02-19T03:19:37.275Z,37.70
2019-02-19T03:22:43.045Z,38.37
2019-02-19T03:25:48.811Z,32.77
2019-02-19T03:28:54.595Z,31.17
2019-02-19T03:32:00.379Z,32.63
2019-02-19T03:35:06.475Z,37.17
2019-02-19T03:38:12.258Z,34.23
2019-02-19T03:41:18.063Z,35.20
2019-02-19T03:44:23.808Z,40.03
2019-02-19T03:47:29.611Z,34.53
2019-02-19T03:50:35.401Z,31.70
2019-02-19T03:53:41.150Z,38.20
2019-02-19T03:56:46.928Z,40.97
2019-02-19T03:59:52.683Z,39.23
2019-02-19T04:02:58.467Z,35.63
2019-02-19T04:06:04.439Z,39.93
2019-02-19T04:09:10.314Z,37.97
2019-02-19T04:12:16.110Z,38.83
2019-02-19T04:15:21.909Z,35.20
2019-02-19T04:18:27.669Z,35.30
2019-02-19T04:21:33.426Z,39.97
2019-02-19T04:24:39.203Z,35.73
2019-02-19T04:27:45.000Z,35.40
2019-02-19T04:30:50.758Z,38.73
2019-02-19T04:33:56.550Z,37.00
2019-02-19T04:37:02.333Z,37.73
2019-02-19T04:40:08.537Z,36.90
2019-02-19T04:43:14.355Z,38.63
2019-02-19T04:46:20.103Z,41.33
2019-02-19T04:49:25.881Z,43.00
2019-02-19T04:52:31.741Z,50.70
2019-02-19T04:55:37.530Z,41.73
2019-02-19T04:58:43.429Z,35.87
2019-02-19T05:01:49.176Z,43.03
2019-02-19T05:04:54.939Z,38.73
2019-02-19T05:08:00.692Z,36.73
2019-02-19T05:11:06.598Z,32.73
2019-02-19T05:14:12.360Z,41.33
2019-02-19T05:17:18.133Z,40.97
2019-02-19T05:20:23.892Z,43.47
2019-02-19T05:23:29.684Z,38.97
2019-02-19T05:26:35.466Z,46.23
2019-02-19T05:29:41.281Z,40.30
2019-02-19T05:32:47.172Z,49.27
2019-02-19T05:35:52.972Z,38.60
2019-02-19T05:38:58.735Z,45.50
2019-02-19T05:42:04.619Z,45.40
2019-02-19T05:45:10.520Z,48.17
2019-02-19T05:48:16.289Z,48.77
2019-02-19T05:51:22.471Z,47.10
2019-02-19T05:54:28.244Z,44.43
2019-02-19T05:57:34.018Z,46.40
2019-02-19T06:00:39.780Z,53.57
2019-02-19T06:03:45.527Z,54.60
2019-02-19T06:06:51.306Z,60.90
2019-02-19T06:09:57.045Z,67.27
2019-02-19T06:13:02.832Z,67.17
2019-02-19T06:16:08.710Z,62.57
2019-02-19T06:19:14.480Z,61.30
2019-02-19T06:22:20.317Z,59.40
2019-02-19T06:25:26.088Z,62.10
2019-02-19T06:28:31.863Z,66.10
2019-02-19T06:31:37.635Z,58.43
2019-02-19T06:34:43.415Z,61.03
2019-02-19T06:37:49.204Z,69.80
2019-02-19T06:40:55.054Z,75.50
2019-02-19T06:44:00.867Z,74.90
2019-02-19T06:47:07.236Z,60.70
2019-02-19T06:50:13.117Z,61.27
2019-02-19T06:53:18.986Z,57.97
2019-02-19T06:56:24.727Z,94.37
2019-02-19T06:59:30.608Z,85.03
2019-02-19T07:02:53.783Z,92.40
2019-02-19T07:05:59.570Z,96.93
2019-02-19T07:09:06.920Z,50.07
2019-02-19T07:12:12.717Z,49.47
2019-02-19T07:15:18.591Z,44.57
2019-02-19T07:18:24.364Z,42.73
2019-02-19T07:21:30.135Z,47.27
2019-02-19T07:24:35.964Z,42.07
2019-02-19T07:27:41.836Z,46.43
2019-02-19T07:30:47.797Z,48.03
2019-02-19T07:33:53.625Z,39.43
2019-02-19T07:36:59.467Z,38.83
2019-02-19T07:40:05.571Z,40.23
2019-02-19T07:43:11.362Z,40.50
2019-02-19T07:46:17.156Z,39.97
2019-02-19T07:49:23.214Z,44.97
2019-02-19T07:52:29.018Z,36.90
2019-02-19T07:55:34.856Z,48.10
2019-02-19T07:58:40.629Z,41.60
2019-02-19T08:01:46.414Z,36.40
2019-02-19T08:04:52.194Z,44.40
2019-02-19T08:07:58.072Z,41.87
2019-02-19T08:11:03.935Z,37.87
2019-02-19T08:14:09.716Z,34.03
2019-02-19T08:17:16.593Z,35.00
2019-02-19T08:20:22.556Z,49.03
2019-02-19T08:23:29.878Z,36.80
2019-02-19T08:26:35.883Z,36.90
2019-02-19T08:29:41.695Z,35.13
2019-02-19T08:32:47.452Z,38.57
2019-02-19T08:35:53.341Z,43.77
2019-02-19T08:38:59.156Z,36.77
2019-02-19T08:42:04.947Z,40.20
2019-02-19T08:45:10.989Z,40.73
2019-02-19T08:48:16.771Z,35.63
2019-02-19T08:51:22.554Z,39.37
2019-02-19T08:54:28.334Z,42.13
2019-02-19T08:57:34.156Z,33.47
2019-02-19T09:00:39.987Z,33.90
2019-02-19T09:03:45.784Z,33.43
2019-02-19T09:06:51.605Z,31.47
2019-02-19T09:09:57.413Z,37.40
2019-02-19T09:13:03.217Z,26.20
2019-02-19T09:16:09.017Z,31.27
2019-02-19T09:19:14.812Z,26.50
2019-02-19T09:22:20.625Z,30.10
2019-02-19T09:25:26.519Z,32.43
2019-02-19T09:28:32.352Z,32.30
2019-02-19T09:31:38.124Z,30.17
2019-02-19T09:34:43.931Z,41.47
2019-02-19T09:37:49.722Z,23.87
2019-02-19T09:40:55.505Z,27.63
2019-02-19T09:44:01.324Z,69.13
2019-02-19T09:47:07.141Z,29.93
2019-02-19T09:50:13.137Z,36.80
2019-02-19T09:53:18.937Z,33.87
2019-02-19T09:56:24.708Z,34.03
2019-02-19T09:59:30.481Z,37.40
2019-02-19T10:02:36.297Z,32.17
2019-02-19T10:05:42.129Z,32.93
2019-02-19T10:08:47.927Z,41.10
2019-02-19T10:11:53.735Z,43.23
2019-02-19T10:14:59.528Z,33.33
2019-02-19T10:18:10.361Z,27.80
2019-02-19T10:21:12.844Z,32.77
2019-02-19T10:24:18.642Z,40.10
2019-02-19T10:27:24.574Z,36.27
2019-02-19T10:30:30.383Z,37.77
2019-02-19T10:33:36.148Z,52.70
2019-02-19T10:36:41.920Z,42.87
2019-02-19T10:39:47.696Z,34.77
2019-02-19T10:42:53.470Z,44.27
2019-02-19T10:45:59.351Z,33.63
2019-02-19T10:49:06.333Z,37.03
2019-02-19T10:52:12.141Z,66.87
2019-02-19T10:55:18.074Z,39.40
2019-02-19T10:58:23.842Z,32.57
2019-02-19T11:01:29.827Z,32.63
2019-02-19T11:04:35.612Z,32.77
2019-02-19T11:07:41.382Z,32.60
2019-02-19T11:10:47.185Z,30.70
2019-02-19T11:13:53.550Z,37.37
2019-02-19T11:16:59.316Z,31.13
2019-02-19T11:20:05.418Z,25.87
2019-02-19T11:23:11.420Z,39.63
2019-02-19T11:26:17.234Z,38.13
2019-02-19T11:29:23.055Z,30.67
2019-02-19T11:32:29.050Z,42.43
2019-02-19T11:35:34.830Z,31.17
2019-02-19T11:38:40.745Z,23.30
2019-02-19T11:41:46.562Z,31.93
2019-02-19T11:44:52.331Z,29.43
2019-02-19T11:47:58.096Z,31.67
2019-02-19T11:51:03.938Z,36.33
2019-02-19T11:54:09.886Z,35.40
2019-02-19T11:57:15.660Z,36.13
2019-02-19T12:00:25.519Z,41.87
2019-02-19T12:03:31.305Z,29.37
2019-02-19T12:06:37.074Z,31.20
2019-02-19T12:09:42.887Z,27.77
2019-02-19T12:12:48.653Z,34.20
2019-02-19T12:15:54.425Z,33.83
2019-02-19T12:19:00.302Z,33.20
2019-02-19T12:22:06.100Z,34.40
2019-02-19T12:25:12.489Z,37.87
2019-02-19T12:28:18.274Z,24.93
2019-02-19T12:31:24.048Z,27.57
2019-02-19T12:34:29.868Z,33.97
2019-02-19T12:37:35.766Z,34.23
2019-02-19T12:40:41.633Z,35.97
2019-02-19T12:43:47.465Z,29.83
2019-02-19T12:46:53.243Z,33.00
2019-02-19T12:49:59.009Z,29.37
2019-02-19T12:53:04.782Z,27.33
2019-02-19T12:56:10.560Z,34.90
2019-02-19T12:59:16.346Z,24.70
2019-02-19T13:02:22.107Z,23.57
2019-02-19T13:05:27.935Z,29.67
2019-02-19T13:08:33.710Z,26.67
2019-02-19T13:11:39.595Z,30.90
2019-02-19T13:14:45.355Z,26.40
2019-02-19T13:17:51.116Z,25.43
2019-02-19T13:20:57.374Z,22.83
2019-02-19T13:24:03.142Z,19.40
2019-02-19T13:27:10.087Z,19.53
2019-02-19T13:30:16.486Z,20.73
2019-02-19T13:33:22.262Z,22.13
2019-02-19T13:36:28.065Z,22.30
2019-02-19T13:39:33.847Z,24.07
2019-02-19T13:42:39.638Z,24.17
2019-02-19T13:45:45.517Z,26.93
2019-02-19T13:48:51.364Z,27.57
2019-02-19T13:52:01.352Z,22.63
2019-02-19T13:55:17.534Z,31.50
2019-02-19T13:58:23.436Z,37.40
2019-02-19T14:01:29.234Z,51.10
2019-02-19T14:04:34.996Z,28.20
2019-02-19T14:07:40.822Z,90.83
2019-02-19T14:10:46.725Z,30.37
2019-02-19T14:14:11.852Z,36.80
2019-02-19T14:17:19.902Z,34.70
2019-02-19T14:20:47.313Z,73.03
2019-02-19T14:24:10.578Z,65.70
2019-02-19T14:27:50.606Z,45.23
2019-02-19T14:31:24.452Z,43.50
2019-02-19T14:34:49.003Z,71.83
2019-02-19T14:38:12.234Z,70.27
2019-02-19T14:41:49.230Z,53.63
2019-02-19T14:45:25.923Z,27.97
2019-02-19T14:48:56.435Z,30.73
2019-02-19T14:52:18.017Z,39.57
2019-02-19T14:55:45.817Z,42.80
2019-02-19T14:59:29.018Z,42.03
2019-02-19T15:02:56.624Z,51.77
2019-02-19T15:06:20.231Z,40.47
2019-02-19T15:09:43.457Z,51.37
2019-02-19T15:13:23.230Z,30.93
2019-02-19T15:16:55.732Z,32.53
2019-02-19T15:20:18.565Z,49.17
2019-02-19T15:23:46.213Z,48.10
2019-02-19T15:27:10.847Z,63.20
2019-02-19T15:30:46.381Z,53.10
2019-02-19T15:34:23.500Z,62.57
2019-02-19T15:37:46.721Z,61.33
2019-02-19T15:41:08.011Z,64.37
2019-02-19T15:44:32.610Z,47.67
2019-02-19T15:48:00.284Z,49.03
2019-02-19T15:51:31.079Z,73.53
2019-02-19T15:54:53.759Z,53.47
2019-02-19T15:58:17.227Z,53.37
2019-02-19T16:01:47.836Z,61.37
2019-02-19T16:05:27.545Z,57.17
2019-02-19T16:08:51.105Z,53.57
2019-02-19T16:12:08.508Z,59.53
2019-02-19T16:15:32.545Z,54.73
2019-02-19T16:18:57.829Z,59.13
2019-02-19T16:22:19.870Z,60.67
2019-02-19T16:25:37.580Z,71.70
2019-02-19T16:29:08.121Z,126.90
2019-02-19T16:32:47.841Z,108.57
2019-02-19T16:36:05.296Z,163.43
2019-02-19T16:39:38.119Z,126.03
2019-02-19T16:43:01.469Z,139.63
2019-02-19T16:46:35.353Z,148.07
2019-02-19T16:50:07.993Z,105.83
2019-02-19T16:53:44.379Z,106.23
2019-02-19T16:57:05.082Z,97.83
2019-02-19T17:00:31.328Z,87.80
2019-02-19T17:03:58.968Z,86.00
2019-02-19T17:07:16.647Z,85.00
2019-02-19T17:10:28.478Z,96.37
2019-02-19T17:14:02.156Z,102.40
2019-02-19T17:17:19.529Z,92.13
2019-02-19T17:20:44.234Z,93.47
2019-02-19T17:24:11.830Z,100.07
2019-02-19T17:27:32.510Z,146.57
2019-02-19T17:30:50.331Z,108.63
2019-02-19T17:34:18.018Z,96.33
2019-02-19T17:37:40.870Z,86.87
2019-02-19T17:41:02.613Z,80.33
2019-02-19T17:44:30.562Z,92.87
2019-02-19T17:47:54.012Z,97.17
2019-02-19T17:51:15.073Z,105.57
2019-02-19T17:54:35.158Z,140.30
2019-02-19T17:58:02.710Z,152.17
2019-02-19T18:01:27.565Z,123.40
2019-02-19T18:04:50.963Z,116.13
2019-02-19T18:08:14.229Z,117.70
2019-02-19T18:11:41.587Z,118.23
2019-02-19T18:15:05.127Z,110.03
2019-02-19T18:18:19.317Z,102.63
2019-02-19T18:21:25.128Z,92.60
2019-02-19T18:24:30.919Z,105.33
2019-02-19T18:27:36.684Z,106.40
2019-02-19T18:30:42.602Z,99.30
2019-02-19T18:33:48.409Z,96.43
2019-02-19T18:36:54.382Z,108.17
2019-02-19T18:40:00.421Z,119.00
2019-02-19T18:43:06.395Z,113.57
2019-02-19T18:46:13.256Z,107.00
2019-02-19T18:49:19.042Z,124.93
2019-02-19T18:52:24.808Z,120.57
2019-02-19T18:55:30.716Z,126.73
2019-02-19T18:58:36.534Z,162.60
2019-02-19T19:01:42.324Z,169.83
2019-02-19T19:04:48.119Z,203.77
2019-02-19T19:07:53.980Z,186.20
2019-02-19T19:10:59.949Z,233.33
2019-02-19T19:14:05.893Z,307.00
2019-02-19T19:17:11.715Z,313.77
2019-02-19T19:20:17.621Z,311.67
2019-02-19T19:23:23.599Z,307.83
2019-02-19T19:26:29.526Z,296.87
2019-02-19T19:29:35.294Z,269.80
2019-02-19T19:32:41.343Z,256.13
2019-02-19T19:35:47.121Z,259.20
2019-02-19T19:38:52.929Z,247.57
2019-02-19T19:41:58.780Z,257.40
2019-02-19T19:45:04.964Z,256.73
2019-02-19T19:48:10.777Z,248.73
2019-02-19T19:51:17.457Z,246.00
2019-02-19T19:54:23.468Z,221.00
2019-02-19T19:57:29.390Z,137.87
2019-02-19T20:00:35.198Z,175.90
2019-02-19T20:03:40.980Z,146.87
2019-02-19T20:06:46.771Z,178.13
2019-02-19T20:09:52.729Z,127.30
2019-02-19T20:12:58.710Z,122.80
2019-02-19T20:16:04.626Z,106.70
2019-02-19T20:19:10.446Z,93.30
2019-02-19T20:22:16.220Z,89.17
2019-02-19T20:25:22.073Z,89.20
2019-02-19T20:28:27.974Z,89.37
2019-02-19T20:31:33.883Z,101.30
2019-02-19T20:34:39.778Z,86.67
2019-02-19T20:37:53.651Z,92.43
2019-02-19T20:40:53.281Z,90.90
2019-02-19T20:43:59.109Z,96.73
2019-02-19T20:47:05.017Z,92.90
2019-02-19T20:50:11.117Z,96.03
2019-02-19T20:53:16.912Z,103.03
2019-02-19T20:56:23.611Z,115.77
2019-02-19T20:59:29.565Z,139.73
2019-02-19T21:02:36.574Z,141.67
2019-02-19T21:05:42.698Z,107.47
2019-02-19T21:08:48.728Z,96.67
2019-02-19T21:11:54.641Z,90.37
2019-02-19T21:15:00.860Z,93.63
2019-02-19T21:18:07.450Z,80.10
2019-02-19T21:21:13.344Z,79.27
2019-02-19T21:24:19.411Z,78.60
2019-02-19T21:27:25.398Z,77.80
2019-02-19T21:30:31.481Z,84.53
2019-02-19T21:33:37.396Z,79.73
2019-02-19T21:36:43.347Z,74.90
2019-02-19T21:39:49.190Z,76.00
2019-02-19T21:42:55.084Z,68.97
2019-02-19T21:46:00.974Z,67.37
2019-02-19T21:49:08.178Z,59.80
2019-02-19T21:52:14.082Z,63.07
2019-02-19T21:55:19.972Z,67.50
2019-02-19T21:58:26.008Z,67.73
2019-02-19T22:01:32.222Z,74.10
2019-02-19T22:04:38.276Z,81.43
2019-02-19T22:07:44.463Z,76.77
2019-02-19T22:10:50.434Z,84.63
2019-02-19T22:13:57.332Z,84.97
2019-02-19T22:17:03.499Z,87.97
2019-02-19T22:20:16.042Z,93.10
2019-02-19T22:23:22.002Z,82.57
2019-02-19T22:26:27.990Z,79.97
2019-02-19T22:29:34.046Z,80.60
2019-02-19T22:32:40.007Z,84.97
2019-02-19T22:35:45.877Z,89.00
2019-02-19T22:38:51.740Z,80.03
2019-02-19T22:41:57.624Z,76.73
2019-02-19T22:45:03.552Z,80.40
2019-02-19T22:48:10.734Z,80.27
2019-02-19T22:51:16.652Z,81.60
2019-02-19T22:54:44.663Z,87.73
2019-02-19T22:57:50.596Z,84.97
2019-02-19T23:01:16.220Z,83.77
2019-02-19T23:04:22.687Z,81.67
2019-02-19T23:07:28.711Z,88.67
2019-02-19T23:10:34.576Z,82.30
2019-02-19T23:13:41.204Z,86.20
2019-02-19T23:16:47.193Z,91.40
2019-02-19T23:19:53.100Z,82.87
2019-02-19T23:22:58.976Z,81.23
2019-02-19T23:26:05.038Z,79.13
2019-02-19T23:29:11.023Z,82.77
2019-02-19T23:32:16.895Z,78.77
2019-02-19T23:35:36.738Z,79.87
2019-02-19T23:38:42.577Z,79.40
2019-02-19T23:41:48.483Z,86.07
2019-02-19T23:44:54.480Z,88.83
2019-02-19T23:48:00.376Z,81.30
2019-02-19T23:51:06.257Z,87.20
2019-02-19T23:54:12.168Z,82.73
2019-02-19T23:57:18.110Z,91.67
